Aviation Digital Data Service (ADDS)

Output produced by METARs form (0501 UTC 21 September 2017)
found at http://www.aviationweather.gov/adds/metars/
 
FEFF 210400Z 00000KT 8000 FEW005 22/21 Q1012 NOSIG
TAF FEFF 202300Z 2100/2206 VRB03KT 8000 NSC 
     TEMPO 2104/2106 3000 BR BKN003 
     BECMG 2108/2109 BKN010 
     BECMG 2110/2112 BKN026 FEW040CB 
     TEMPO 2113/2117 TS